sensor_id;sensor_type;location;lat;lon;timestamp;P1;durP1;ratioP1;P2;durP2;ratioP2
22705;SDS011;11520;51.198;4.468;2023-07-20T00:00:48;12.05;;;3.85;;
22705;SDS011;11520;51.198;4.468;2023-07-20T00:03:18;6.72;;;3.38;;
22705;SDS011;11520;51.198;4.468;2023-07-20T00:05:50;7.45;;;3.28;;
22705;SDS011;11520;51.198;4.468;2023-07-20T00:08:16;8.00;;;2.97;;
22705;SDS011;11520;51.198;4.468;2023-07-20T00:10:42;9.73;;;2.58;;
22705;SDS011;11520;51.198;4.468;2023-07-20T00:13:08;8.50;;;2.88;;
22705;SDS011;11520;51.198;4.468;2023-07-20T00:15:34;5.55;;;2.38;;
22705;SDS011;11520;51.198;4.468;2023-07-20T00:18:00;6.35;;;2.42;;
22705;SDS011;11520;51.198;4.468;2023-07-20T00:20:26;7.70;;;2.53;;
22705;SDS011;11520;51.198;4.468;2023-07-20T00:22:54;5.75;;;2.28;;
22705;SDS011;11520;51.198;4.468;2023-07-20T00:25:20;6.03;;;2.30;;
22705;SDS011;11520;51.198;4.468;2023-07-20T00:27:45;6.07;;;2.30;;
22705;SDS011;11520;51.198;4.468;2023-07-20T00:30:11;7.30;;;1.98;;
22705;SDS011;11520;51.198;4.468;2023-07-20T00:32:37;5.63;;;2.10;;
22705;SDS011;11520;51.198;4.468;2023-07-20T00:35:03;4.32;;;2.08;;
22705;SDS011;11520;51.198;4.468;2023-07-20T00:37:28;7.72;;;2.72;;
22705;SDS011;11520;51.198;4.468;2023-07-20T00:39:54;5.32;;;2.05;;
22705;SDS011;11520;51.198;4.468;2023-07-20T00:42:20;5.40;;;2.00;;
22705;SDS011;11520;51.198;4.468;2023-07-20T00:44:46;5.05;;;1.80;;
22705;SDS011;11520;51.198;4.468;2023-07-20T00:47:11;7.20;;;2.67;;
22705;SDS011;11520;51.198;4.468;2023-07-20T00:49:37;5.88;;;2.35;;
22705;SDS011;11520;51.198;4.468;2023-07-20T00:52:03;6.07;;;2.30;;
22705;SDS011;11520;51.198;4.468;2023-07-20T00:54:32;3.63;;;2.22;;
22705;SDS011;11520;51.198;4.468;2023-07-20T00:56:58;5.80;;;2.35;;
22705;SDS011;11520;51.198;4.468;2023-07-20T00:59:26;8.13;;;2.20;;
22705;SDS011;11520;51.198;4.468;2023-07-20T01:01:52;7.13;;;2.40;;
22705;SDS011;11520;51.198;4.468;2023-07-20T01:04:17;6.72;;;2.22;;
22705;SDS011;11520;51.198;4.468;2023-07-20T01:09:35;6.47;;;2.33;;
22705;SDS011;11520;51.198;4.468;2023-07-20T01:15:14;5.63;;;2.60;;
22705;SDS011;11520;51.198;4.468;2023-07-20T01:17:41;5.65;;;2.30;;
22705;SDS011;11520;51.198;4.468;2023-07-20T01:20:06;7.53;;;2.00;;
22705;SDS011;11520;51.198;4.468;2023-07-20T01:23:22;5.97;;;2.60;;
22705;SDS011;11520;51.198;4.468;2023-07-20T01:31:42;7.45;;;2.70;;
22705;SDS011;11520;51.198;4.468;2023-07-20T01:34:09;8.68;;;2.60;;
22705;SDS011;11520;51.198;4.468;2023-07-20T01:36:37;8.20;;;2.88;;
22705;SDS011;11520;51.198;4.468;2023-07-20T01:39:04;5.78;;;3.15;;
22705;SDS011;11520;51.198;4.468;2023-07-20T01:41:31;6.18;;;2.40;;
22705;SDS011;11520;51.198;4.468;2023-07-20T01:43:59;6.50;;;3.05;;
22705;SDS011;11520;51.198;4.468;2023-07-20T01:46:25;6.22;;;3.10;;
22705;SDS011;11520;51.198;4.468;2023-07-20T01:48:51;8.43;;;3.47;;
22705;SDS011;11520;51.198;4.468;2023-07-20T01:51:18;7.05;;;2.97;;
22705;SDS011;11520;51.198;4.468;2023-07-20T01:53:43;7.63;;;3.28;;
22705;SDS011;11520;51.198;4.468;2023-07-20T01:56:09;5.82;;;3.42;;
22705;SDS011;11520;51.198;4.468;2023-07-20T01:58:37;8.23;;;3.38;;
22705;SDS011;11520;51.198;4.468;2023-07-20T02:01:02;6.10;;;3.03;;
22705;SDS011;11520;51.198;4.468;2023-07-20T02:03:28;7.13;;;3.60;;
22705;SDS011;11520;51.198;4.468;2023-07-20T02:05:54;9.27;;;3.33;;
22705;SDS011;11520;51.198;4.468;2023-07-20T02:08:19;7.47;;;3.47;;
22705;SDS011;11520;51.198;4.468;2023-07-20T02:10:46;6.43;;;3.63;;
22705;SDS011;11520;51.198;4.468;2023-07-20T02:13:12;7.35;;;3.53;;
22705;SDS011;11520;51.198;4.468;2023-07-20T02:15:38;6.88;;;3.72;;
22705;SDS011;11520;51.198;4.468;2023-07-20T02:18:04;5.32;;;4.47;;
22705;SDS011;11520;51.198;4.468;2023-07-20T02:20:29;9.25;;;5.10;;
22705;SDS011;11520;51.198;4.468;2023-07-20T02:22:55;7.28;;;4.28;;
22705;SDS011;11520;51.198;4.468;2023-07-20T02:25:21;6.57;;;4.32;;
22705;SDS011;11520;51.198;4.468;2023-07-20T02:27:47;7.75;;;4.85;;
22705;SDS011;11520;51.198;4.468;2023-07-20T02:30:12;9.55;;;4.32;;
22705;SDS011;11520;51.198;4.468;2023-07-20T02:32:38;6.80;;;4.70;;
22705;SDS011;11520;51.198;4.468;2023-07-20T02:35:04;6.47;;;4.03;;
22705;SDS011;11520;51.198;4.468;2023-07-20T02:37:31;11.95;;;4.50;;
22705;SDS011;11520;51.198;4.468;2023-07-20T02:39:57;9.00;;;4.93;;
22705;SDS011;11520;51.198;4.468;2023-07-20T02:42:23;10.20;;;5.05;;
22705;SDS011;11520;51.198;4.468;2023-07-20T02:44:51;13.95;;;5.00;;
22705;SDS011;11520;51.198;4.468;2023-07-20T02:47:16;7.72;;;5.43;;
22705;SDS011;11520;51.198;4.468;2023-07-20T02:49:42;8.02;;;4.90;;
22705;SDS011;11520;51.198;4.468;2023-07-20T02:52:08;10.40;;;4.80;;
22705;SDS011;11520;51.198;4.468;2023-07-20T02:54:34;11.07;;;5.28;;
22705;SDS011;11520;51.198;4.468;2023-07-20T02:56:59;9.48;;;5.50;;
22705;SDS011;11520;51.198;4.468;2023-07-20T02:59:26;11.38;;;5.85;;
22705;SDS011;11520;51.198;4.468;2023-07-20T03:01:51;9.13;;;4.75;;
22705;SDS011;11520;51.198;4.468;2023-07-20T03:04:17;9.05;;;5.30;;
22705;SDS011;11520;51.198;4.468;2023-07-20T03:06:43;8.90;;;5.15;;
22705;SDS011;11520;51.198;4.468;2023-07-20T03:09:08;13.30;;;5.45;;
22705;SDS011;11520;51.198;4.468;2023-07-20T03:11:34;8.23;;;5.30;;
22705;SDS011;11520;51.198;4.468;2023-07-20T03:14:00;7.53;;;4.72;;
22705;SDS011;11520;51.198;4.468;2023-07-20T03:16:25;9.13;;;5.30;;
22705;SDS011;11520;51.198;4.468;2023-07-20T03:18:51;9.02;;;5.65;;
22705;SDS011;11520;51.198;4.468;2023-07-20T03:21:17;10.25;;;5.90;;
22705;SDS011;11520;51.198;4.468;2023-07-20T03:23:43;10.02;;;5.30;;
22705;SDS011;11520;51.198;4.468;2023-07-20T03:26:08;9.15;;;5.88;;
22705;SDS011;11520;51.198;4.468;2023-07-20T03:28:37;8.57;;;5.60;;
22705;SDS011;11520;51.198;4.468;2023-07-20T03:31:03;9.15;;;6.15;;
22705;SDS011;11520;51.198;4.468;2023-07-20T03:33:29;14.85;;;7.40;;
22705;SDS011;11520;51.198;4.468;2023-07-20T03:35:56;12.65;;;6.32;;
22705;SDS011;11520;51.198;4.468;2023-07-20T03:38:23;10.60;;;6.95;;
22705;SDS011;11520;51.198;4.468;2023-07-20T03:40:53;12.23;;;6.65;;
22705;SDS011;11520;51.198;4.468;2023-07-20T03:43:20;10.98;;;5.63;;
22705;SDS011;11520;51.198;4.468;2023-07-20T03:45:49;11.98;;;6.40;;
22705;SDS011;11520;51.198;4.468;2023-07-20T03:48:16;9.88;;;6.47;;
22705;SDS011;11520;51.198;4.468;2023-07-20T03:50:44;8.07;;;6.00;;
22705;SDS011;11520;51.198;4.468;2023-07-20T03:53:11;10.55;;;6.22;;
22705;SDS011;11520;51.198;4.468;2023-07-20T03:55:38;9.88;;;6.60;;
22705;SDS011;11520;51.198;4.468;2023-07-20T03:58:05;9.45;;;6.55;;
22705;SDS011;11520;51.198;4.468;2023-07-20T04:00:31;10.50;;;6.38;;
22705;SDS011;11520;51.198;4.468;2023-07-20T04:02:57;10.23;;;6.50;;
22705;SDS011;11520;51.198;4.468;2023-07-20T04:05:24;10.35;;;6.35;;
22705;SDS011;11520;51.198;4.468;2023-07-20T04:07:50;12.05;;;6.80;;
22705;SDS011;11520;51.198;4.468;2023-07-20T04:10:16;11.55;;;7.40;;
22705;SDS011;11520;51.198;4.468;2023-07-20T04:12:42;10.52;;;6.07;;
22705;SDS011;11520;51.198;4.468;2023-07-20T04:15:08;8.65;;;6.03;;
22705;SDS011;11520;51.198;4.468;2023-07-20T04:17:34;8.13;;;6.78;;
22705;SDS011;11520;51.198;4.468;2023-07-20T04:20:00;9.70;;;6.45;;
22705;SDS011;11520;51.198;4.468;2023-07-20T04:22:28;8.98;;;6.70;;
22705;SDS011;11520;51.198;4.468;2023-07-20T04:24:53;9.63;;;5.97;;
22705;SDS011;11520;51.198;4.468;2023-07-20T04:27:19;7.53;;;6.20;;
22705;SDS011;11520;51.198;4.468;2023-07-20T04:29:44;7.68;;;5.95;;
22705;SDS011;11520;51.198;4.468;2023-07-20T04:32:11;10.68;;;6.95;;
22705;SDS011;11520;51.198;4.468;2023-07-20T04:34:37;7.95;;;6.82;;
22705;SDS011;11520;51.198;4.468;2023-07-20T04:37:04;11.40;;;8.18;;
22705;SDS011;11520;51.198;4.468;2023-07-20T04:39:29;8.40;;;6.43;;
22705;SDS011;11520;51.198;4.468;2023-07-20T04:41:55;10.70;;;6.75;;
22705;SDS011;11520;51.198;4.468;2023-07-20T04:44:22;11.10;;;6.40;;
22705;SDS011;11520;51.198;4.468;2023-07-20T04:46:48;7.47;;;6.00;;
22705;SDS011;11520;51.198;4.468;2023-07-20T04:49:14;8.50;;;5.60;;
22705;SDS011;11520;51.198;4.468;2023-07-20T04:51:39;8.18;;;5.65;;
22705;SDS011;11520;51.198;4.468;2023-07-20T04:54:06;7.65;;;5.80;;
22705;SDS011;11520;51.198;4.468;2023-07-20T04:56:33;7.47;;;5.45;;
22705;SDS011;11520;51.198;4.468;2023-07-20T04:58:59;14.45;;;6.80;;
22705;SDS011;11520;51.198;4.468;2023-07-20T05:01:25;8.05;;;6.30;;
22705;SDS011;11520;51.198;4.468;2023-07-20T05:03:51;7.25;;;5.55;;
22705;SDS011;11520;51.198;4.468;2023-07-20T05:06:17;8.80;;;4.97;;
22705;SDS011;11520;51.198;4.468;2023-07-20T05:08:46;8.70;;;4.97;;
22705;SDS011;11520;51.198;4.468;2023-07-20T05:11:11;7.28;;;5.22;;
22705;SDS011;11520;51.198;4.468;2023-07-20T05:13:37;7.28;;;4.90;;
22705;SDS011;11520;51.198;4.468;2023-07-20T05:16:03;6.50;;;5.32;;
22705;SDS011;11520;51.198;4.468;2023-07-20T05:18:29;6.80;;;4.72;;
22705;SDS011;11520;51.198;4.468;2023-07-20T05:20:55;6.15;;;5.07;;
22705;SDS011;11520;51.198;4.468;2023-07-20T05:23:20;5.32;;;4.82;;
22705;SDS011;11520;51.198;4.468;2023-07-20T05:25:47;6.00;;;5.07;;
22705;SDS011;11520;51.198;4.468;2023-07-20T05:28:20;7.97;;;4.90;;
22705;SDS011;11520;51.198;4.468;2023-07-20T05:30:45;8.55;;;4.57;;
22705;SDS011;11520;51.198;4.468;2023-07-20T05:33:11;8.15;;;4.07;;
22705;SDS011;11520;51.198;4.468;2023-07-20T05:35:37;6.07;;;3.95;;
22705;SDS011;11520;51.198;4.468;2023-07-20T05:38:02;5.82;;;4.25;;
22705;SDS011;11520;51.198;4.468;2023-07-20T05:40:30;6.28;;;3.58;;
22705;SDS011;11520;51.198;4.468;2023-07-20T05:42:55;5.38;;;3.38;;
22705;SDS011;11520;51.198;4.468;2023-07-20T05:45:22;3.42;;;3.03;;
22705;SDS011;11520;51.198;4.468;2023-07-20T05:47:48;4.10;;;2.53;;
22705;SDS011;11520;51.198;4.468;2023-07-20T05:50:15;2.53;;;2.17;;
22705;SDS011;11520;51.198;4.468;2023-07-20T05:52:40;3.70;;;2.50;;
22705;SDS011;11520;51.198;4.468;2023-07-20T05:55:06;3.92;;;2.35;;
22705;SDS011;11520;51.198;4.468;2023-07-20T05:57:33;4.80;;;2.35;;
22705;SDS011;11520;51.198;4.468;2023-07-20T06:00:00;2.75;;;2.38;;
22705;SDS011;11520;51.198;4.468;2023-07-20T06:02:25;4.93;;;2.83;;
22705;SDS011;11520;51.198;4.468;2023-07-20T06:04:51;3.13;;;2.63;;
22705;SDS011;11520;51.198;4.468;2023-07-20T06:07:16;5.78;;;3.97;;
22705;SDS011;11520;51.198;4.468;2023-07-20T06:09:42;4.10;;;2.75;;
22705;SDS011;11520;51.198;4.468;2023-07-20T06:12:08;3.92;;;3.20;;
22705;SDS011;11520;51.198;4.468;2023-07-20T06:14:34;4.03;;;3.10;;
22705;SDS011;11520;51.198;4.468;2023-07-20T06:16:59;3.47;;;2.67;;
22705;SDS011;11520;51.198;4.468;2023-07-20T06:19:29;3.50;;;2.40;;
22705;SDS011;11520;51.198;4.468;2023-07-20T06:21:56;5.32;;;3.25;;
22705;SDS011;11520;51.198;4.468;2023-07-20T06:24:23;3.60;;;2.20;;
22705;SDS011;11520;51.198;4.468;2023-07-20T06:26:48;5.38;;;2.17;;
22705;SDS011;11520;51.198;4.468;2023-07-20T06:29:14;3.40;;;2.80;;
22705;SDS011;11520;51.198;4.468;2023-07-20T06:31:41;3.03;;;2.72;;
22705;SDS011;11520;51.198;4.468;2023-07-20T06:34:06;6.70;;;3.67;;
22705;SDS011;11520;51.198;4.468;2023-07-20T06:36:32;4.15;;;2.78;;
22705;SDS011;11520;51.198;4.468;2023-07-20T06:38:59;2.53;;;1.85;;
22705;SDS011;11520;51.198;4.468;2023-07-20T06:41:27;7.45;;;1.70;;
22705;SDS011;11520;51.198;4.468;2023-07-20T06:43:54;3.40;;;2.00;;
22705;SDS011;11520;51.198;4.468;2023-07-20T06:46:25;2.80;;;1.40;;
22705;SDS011;11520;51.198;4.468;2023-07-20T06:48:51;2.85;;;1.92;;
22705;SDS011;11520;51.198;4.468;2023-07-20T06:51:16;2.88;;;2.20;;
22705;SDS011;11520;51.198;4.468;2023-07-20T06:53:42;4.15;;;2.20;;
22705;SDS011;11520;51.198;4.468;2023-07-20T06:56:11;3.08;;;1.88;;
22705;SDS011;11520;51.198;4.468;2023-07-20T06:58:37;3.70;;;1.90;;
22705;SDS011;11520;51.198;4.468;2023-07-20T07:01:07;2.50;;;1.60;;
22705;SDS011;11520;51.198;4.468;2023-07-20T07:03:34;3.70;;;2.00;;
22705;SDS011;11520;51.198;4.468;2023-07-20T07:06:00;3.05;;;1.58;;
22705;SDS011;11520;51.198;4.468;2023-07-20T07:08:26;2.50;;;1.65;;
22705;SDS011;11520;51.198;4.468;2023-07-20T07:10:52;2.58;;;1.27;;
22705;SDS011;11520;51.198;4.468;2023-07-20T07:13:18;1.65;;;1.30;;
22705;SDS011;11520;51.198;4.468;2023-07-20T07:15:44;1.58;;;1.45;;
22705;SDS011;11520;51.198;4.468;2023-07-20T07:18:10;2.75;;;1.20;;
22705;SDS011;11520;51.198;4.468;2023-07-20T07:20:36;3.00;;;1.05;;
22705;SDS011;11520;51.198;4.468;2023-07-20T07:23:01;2.22;;;0.98;;
22705;SDS011;11520;51.198;4.468;2023-07-20T07:25:27;1.10;;;0.95;;
22705;SDS011;11520;51.198;4.468;2023-07-20T07:27:53;1.25;;;0.80;;
22705;SDS011;11520;51.198;4.468;2023-07-20T07:30:20;3.03;;;0.90;;
22705;SDS011;11520;51.198;4.468;2023-07-20T07:32:46;0.52;;;0.50;;
22705;SDS011;11520;51.198;4.468;2023-07-20T07:35:12;0.90;;;0.57;;
22705;SDS011;11520;51.198;4.468;2023-07-20T07:37:38;2.03;;;0.75;;
22705;SDS011;11520;51.198;4.468;2023-07-20T07:40:04;2.67;;;1.10;;
22705;SDS011;11520;51.198;4.468;2023-07-20T07:42:31;2.17;;;0.47;;
22705;SDS011;11520;51.198;4.468;2023-07-20T07:44:58;1.50;;;0.60;;
22705;SDS011;11520;51.198;4.468;2023-07-20T07:47:24;1.02;;;0.60;;
22705;SDS011;11520;51.198;4.468;2023-07-20T07:49:50;0.65;;;0.50;;
22705;SDS011;11520;51.198;4.468;2023-07-20T07:52:16;2.10;;;1.08;;
22705;SDS011;11520;51.198;4.468;2023-07-20T07:54:42;2.35;;;0.60;;
22705;SDS011;11520;51.198;4.468;2023-07-20T07:57:08;1.27;;;0.43;;
22705;SDS011;11520;51.198;4.468;2023-07-20T07:59:34;2.72;;;0.40;;
22705;SDS011;11520;51.198;4.468;2023-07-20T08:02:03;1.33;;;0.57;;
22705;SDS011;11520;51.198;4.468;2023-07-20T08:04:31;0.93;;;0.50;;
22705;SDS011;11520;51.198;4.468;2023-07-20T08:06:56;1.20;;;0.50;;
22705;SDS011;11520;51.198;4.468;2023-07-20T08:09:23;1.60;;;0.40;;
22705;SDS011;11520;51.198;4.468;2023-07-20T08:11:48;1.15;;;0.65;;
22705;SDS011;11520;51.198;4.468;2023-07-20T08:14:14;1.35;;;0.73;;
22705;SDS011;11520;51.198;4.468;2023-07-20T08:16:40;1.55;;;0.73;;
22705;SDS011;11520;51.198;4.468;2023-07-20T08:19:07;0.85;;;0.80;;
22705;SDS011;11520;51.198;4.468;2023-07-20T08:21:33;2.97;;;1.20;;
22705;SDS011;11520;51.198;4.468;2023-07-20T08:24:02;1.05;;;1.00;;
22705;SDS011;11520;51.198;4.468;2023-07-20T08:26:28;1.33;;;1.23;;
22705;SDS011;11520;51.198;4.468;2023-07-20T08:28:53;1.42;;;1.00;;
22705;SDS011;11520;51.198;4.468;2023-07-20T08:31:19;2.75;;;1.27;;
22705;SDS011;11520;51.198;4.468;2023-07-20T08:33:45;2.95;;;1.33;;
22705;SDS011;11520;51.198;4.468;2023-07-20T08:36:10;1.65;;;1.48;;
22705;SDS011;11520;51.198;4.468;2023-07-20T08:38:37;3.30;;;1.00;;
22705;SDS011;11520;51.198;4.468;2023-07-20T08:41:06;2.35;;;0.80;;
22705;SDS011;11520;51.198;4.468;2023-07-20T08:43:34;0.70;;;0.70;;
22705;SDS011;11520;51.198;4.468;2023-07-20T08:46:03;2.58;;;1.00;;
22705;SDS011;11520;51.198;4.468;2023-07-20T08:48:30;1.20;;;0.98;;
22705;SDS011;11520;51.198;4.468;2023-07-20T08:50:56;1.70;;;1.60;;
22705;SDS011;11520;51.198;4.468;2023-07-20T08:53:23;1.52;;;0.90;;
22705;SDS011;11520;51.198;4.468;2023-07-20T08:55:49;3.50;;;1.00;;
22705;SDS011;11520;51.198;4.468;2023-07-20T08:58:18;2.15;;;0.60;;
22705;SDS011;11520;51.198;4.468;2023-07-20T09:00:44;1.02;;;0.88;;
22705;SDS011;11520;51.198;4.468;2023-07-20T09:03:11;1.38;;;0.95;;
22705;SDS011;11520;51.198;4.468;2023-07-20T09:05:37;1.98;;;0.70;;
22705;SDS011;11520;51.198;4.468;2023-07-20T09:08:05;1.80;;;0.40;;
22705;SDS011;11520;51.198;4.468;2023-07-20T09:10:30;1.40;;;0.70;;
22705;SDS011;11520;51.198;4.468;2023-07-20T09:12:56;0.80;;;0.80;;
22705;SDS011;11520;51.198;4.468;2023-07-20T09:15:22;1.10;;;1.00;;
22705;SDS011;11520;51.198;4.468;2023-07-20T09:17:48;1.42;;;0.73;;
22705;SDS011;11520;51.198;4.468;2023-07-20T09:20:15;1.40;;;0.90;;
22705;SDS011;11520;51.198;4.468;2023-07-20T09:22:43;1.55;;;0.80;;
22705;SDS011;11520;51.198;4.468;2023-07-20T09:25:13;2.05;;;0.88;;
22705;SDS011;11520;51.198;4.468;2023-07-20T09:27:41;0.88;;;0.60;;
22705;SDS011;11520;51.198;4.468;2023-07-20T09:30:09;0.77;;;0.77;;
22705;SDS011;11520;51.198;4.468;2023-07-20T09:32:48;0.68;;;0.68;;
22705;SDS011;11520;51.198;4.468;2023-07-20T09:35:19;2.05;;;0.65;;
22705;SDS011;11520;51.198;4.468;2023-07-20T09:37:48;1.17;;;0.70;;
22705;SDS011;11520;51.198;4.468;2023-07-20T09:40:17;1.30;;;0.68;;
22705;SDS011;11520;51.198;4.468;2023-07-20T09:42:44;0.60;;;0.60;;
22705;SDS011;11520;51.198;4.468;2023-07-20T09:45:10;0.73;;;0.55;;
22705;SDS011;11520;51.198;4.468;2023-07-20T09:47:37;1.60;;;0.90;;
22705;SDS011;11520;51.198;4.468;2023-07-20T09:50:06;1.90;;;0.77;;
22705;SDS011;11520;51.198;4.468;2023-07-20T09:52:42;1.67;;;0.68;;
22705;SDS011;11520;51.198;4.468;2023-07-20T09:55:12;1.05;;;0.73;;
22705;SDS011;11520;51.198;4.468;2023-07-20T09:57:38;3.15;;;0.95;;
22705;SDS011;11520;51.198;4.468;2023-07-20T10:00:04;8.07;;;1.15;;
22705;SDS011;11520;51.198;4.468;2023-07-20T10:02:42;1.33;;;0.93;;
22705;SDS011;11520;51.198;4.468;2023-07-20T10:05:30;2.70;;;1.17;;
22705;SDS011;11520;51.198;4.468;2023-07-20T10:08:01;2.20;;;1.00;;
22705;SDS011;11520;51.198;4.468;2023-07-20T10:10:29;1.80;;;0.88;;
22705;SDS011;11520;51.198;4.468;2023-07-20T10:12:58;2.13;;;1.30;;
22705;SDS011;11520;51.198;4.468;2023-07-20T10:15:34;3.25;;;1.02;;
22705;SDS011;11520;51.198;4.468;2023-07-20T10:18:04;2.80;;;0.70;;
22705;SDS011;11520;51.198;4.468;2023-07-20T10:20:35;1.33;;;1.00;;
22705;SDS011;11520;51.198;4.468;2023-07-20T10:23:04;1.60;;;0.98;;
22705;SDS011;11520;51.198;4.468;2023-07-20T10:25:47;0.93;;;0.55;;
22705;SDS011;11520;51.198;4.468;2023-07-20T10:28:14;2.85;;;0.90;;
22705;SDS011;11520;51.198;4.468;2023-07-20T10:30:40;1.45;;;0.70;;
22705;SDS011;11520;51.198;4.468;2023-07-20T10:33:08;1.10;;;0.60;;
22705;SDS011;11520;51.198;4.468;2023-07-20T10:38:37;3.72;;;0.98;;
22705;SDS011;11520;51.198;4.468;2023-07-20T10:41:04;0.70;;;0.57;;
22705;SDS011;11520;51.198;4.468;2023-07-20T10:43:42;1.98;;;0.55;;
22705;SDS011;11520;51.198;4.468;2023-07-20T10:46:13;0.50;;;0.50;;
22705;SDS011;11520;51.198;4.468;2023-07-20T10:49:01;1.35;;;0.70;;
22705;SDS011;11520;51.198;4.468;2023-07-20T10:51:28;0.88;;;0.38;;
22705;SDS011;11520;51.198;4.468;2023-07-20T10:53:57;0.50;;;0.30;;
22705;SDS011;11520;51.198;4.468;2023-07-20T10:56:25;0.90;;;0.65;;
22705;SDS011;11520;51.198;4.468;2023-07-20T10:58:57;0.80;;;0.40;;
22705;SDS011;11520;51.198;4.468;2023-07-20T11:01:28;1.60;;;0.43;;
22705;SDS011;11520;51.198;4.468;2023-07-20T11:03:57;1.38;;;0.65;;
22705;SDS011;11520;51.198;4.468;2023-07-20T11:08:57;1.38;;;0.40;;
22705;SDS011;11520;51.198;4.468;2023-07-20T11:11:33;0.70;;;0.40;;
22705;SDS011;11520;51.198;4.468;2023-07-20T11:14:04;1.00;;;0.32;;
22705;SDS011;11520;51.198;4.468;2023-07-20T11:16:38;0.73;;;0.45;;
22705;SDS011;11520;51.198;4.468;2023-07-20T11:19:19;1.38;;;0.50;;
22705;SDS011;11520;51.198;4.468;2023-07-20T11:21:46;7.68;;;0.50;;
22705;SDS011;11520;51.198;4.468;2023-07-20T11:24:15;0.70;;;0.40;;
22705;SDS011;11520;51.198;4.468;2023-07-20T11:26:44;0.70;;;0.32;;
22705;SDS011;11520;51.198;4.468;2023-07-20T11:29:11;0.50;;;0.32;;
22705;SDS011;11520;51.198;4.468;2023-07-20T11:31:38;3.05;;;0.50;;
22705;SDS011;11520;51.198;4.468;2023-07-20T11:34:05;0.70;;;0.28;;
22705;SDS011;11520;51.198;4.468;2023-07-20T11:36:36;0.65;;;0.20;;
22705;SDS011;11520;51.198;4.468;2023-07-20T11:39:02;1.85;;;0.30;;
22705;SDS011;11520;51.198;4.468;2023-07-20T11:41:29;0.68;;;0.25;;
22705;SDS011;11520;51.198;4.468;2023-07-20T11:43:56;0.70;;;0.30;;
22705;SDS011;11520;51.198;4.468;2023-07-20T11:46:22;3.28;;;0.40;;
22705;SDS011;11520;51.198;4.468;2023-07-20T11:48:48;1.67;;;0.40;;
22705;SDS011;11520;51.198;4.468;2023-07-20T11:51:14;1.08;;;0.40;;
22705;SDS011;11520;51.198;4.468;2023-07-20T11:53:41;0.90;;;0.40;;
22705;SDS011;11520;51.198;4.468;2023-07-20T11:56:09;0.55;;;0.40;;
22705;SDS011;11520;51.198;4.468;2023-07-20T11:58:35;2.55;;;0.40;;
22705;SDS011;11520;51.198;4.468;2023-07-20T12:01:01;1.60;;;0.45;;
22705;SDS011;11520;51.198;4.468;2023-07-20T12:03:27;0.73;;;0.50;;
22705;SDS011;11520;51.198;4.468;2023-07-20T12:05:53;1.92;;;0.40;;
22705;SDS011;11520;51.198;4.468;2023-07-20T12:08:19;1.42;;;0.35;;
22705;SDS011;11520;51.198;4.468;2023-07-20T12:10:45;3.83;;;0.52;;
22705;SDS011;11520;51.198;4.468;2023-07-20T12:13:11;0.40;;;0.30;;
22705;SDS011;11520;51.198;4.468;2023-07-20T12:15:37;0.88;;;0.50;;
22705;SDS011;11520;51.198;4.468;2023-07-20T12:18:05;0.32;;;0.32;;
22705;SDS011;11520;51.198;4.468;2023-07-20T12:20:35;0.30;;;0.25;;
22705;SDS011;11520;51.198;4.468;2023-07-20T12:23:02;1.95;;;0.50;;
22705;SDS011;11520;51.198;4.468;2023-07-20T12:25:41;1.80;;;0.50;;
22705;SDS011;11520;51.198;4.468;2023-07-20T12:28:11;0.77;;;0.45;;
22705;SDS011;11520;51.198;4.468;2023-07-20T12:30:38;3.05;;;0.47;;
22705;SDS011;11520;51.198;4.468;2023-07-20T12:33:05;0.73;;;0.40;;
22705;SDS011;11520;51.198;4.468;2023-07-20T12:35:31;1.10;;;0.40;;
22705;SDS011;11520;51.198;4.468;2023-07-20T12:37:58;1.40;;;0.47;;
22705;SDS011;11520;51.198;4.468;2023-07-20T12:40:24;1.13;;;0.70;;
22705;SDS011;11520;51.198;4.468;2023-07-20T12:42:49;0.60;;;0.50;;
22705;SDS011;11520;51.198;4.468;2023-07-20T12:45:15;0.60;;;0.50;;
22705;SDS011;11520;51.198;4.468;2023-07-20T12:47:42;1.98;;;0.63;;
22705;SDS011;11520;51.198;4.468;2023-07-20T12:50:11;0.60;;;0.50;;
22705;SDS011;11520;51.198;4.468;2023-07-20T12:52:37;2.30;;;0.68;;
22705;SDS011;11520;51.198;4.468;2023-07-20T12:55:05;0.50;;;0.50;;
22705;SDS011;11520;51.198;4.468;2023-07-20T12:57:36;1.38;;;0.52;;
22705;SDS011;11520;51.198;4.468;2023-07-20T13:00:03;3.22;;;0.70;;
22705;SDS011;11520;51.198;4.468;2023-07-20T13:02:32;1.83;;;0.75;;
22705;SDS011;11520;51.198;4.468;2023-07-20T13:04:58;0.98;;;0.80;;
22705;SDS011;11520;51.198;4.468;2023-07-20T13:07:34;2.58;;;0.80;;
22705;SDS011;11520;51.198;4.468;2023-07-20T13:10:05;1.00;;;0.80;;
22705;SDS011;11520;51.198;4.468;2023-07-20T13:12:32;1.15;;;0.90;;
22705;SDS011;11520;51.198;4.468;2023-07-20T13:15:00;4.78;;;1.05;;
22705;SDS011;11520;51.198;4.468;2023-07-20T13:17:28;3.00;;;1.02;;
22705;SDS011;11520;51.198;4.468;2023-07-20T13:19:54;1.45;;;1.00;;
22705;SDS011;11520;51.198;4.468;2023-07-20T13:22:20;4.70;;;1.05;;
22705;SDS011;11520;51.198;4.468;2023-07-20T13:24:46;3.70;;;1.10;;
22705;SDS011;11520;51.198;4.468;2023-07-20T13:27:18;2.78;;;0.82;;
22705;SDS011;11520;51.198;4.468;2023-07-20T13:29:45;1.40;;;1.10;;
22705;SDS011;11520;51.198;4.468;2023-07-20T13:32:13;0.75;;;0.75;;
22705;SDS011;11520;51.198;4.468;2023-07-20T13:34:40;1.45;;;1.20;;
22705;SDS011;11520;51.198;4.468;2023-07-20T13:37:06;1.42;;;1.02;;
22705;SDS011;11520;51.198;4.468;2023-07-20T13:39:32;3.40;;;1.10;;
22705;SDS011;11520;51.198;4.468;2023-07-20T13:41:58;3.97;;;1.33;;
22705;SDS011;11520;51.198;4.468;2023-07-20T13:44:29;2.60;;;1.27;;
22705;SDS011;11520;51.198;4.468;2023-07-20T13:46:54;2.97;;;1.10;;
22705;SDS011;11520;51.198;4.468;2023-07-20T13:49:20;1.40;;;0.90;;
22705;SDS011;11520;51.198;4.468;2023-07-20T13:51:46;2.30;;;1.13;;
22705;SDS011;11520;51.198;4.468;2023-07-20T13:54:11;1.08;;;1.00;;
22705;SDS011;11520;51.198;4.468;2023-07-20T13:56:37;1.30;;;1.20;;
22705;SDS011;11520;51.198;4.468;2023-07-20T13:59:04;3.50;;;1.60;;
22705;SDS011;11520;51.198;4.468;2023-07-20T14:01:33;2.63;;;1.30;;
22705;SDS011;11520;51.198;4.468;2023-07-20T14:04:00;1.40;;;1.00;;
22705;SDS011;11520;51.198;4.468;2023-07-20T14:06:31;4.97;;;1.50;;
22705;SDS011;11520;51.198;4.468;2023-07-20T14:08:59;1.35;;;1.23;;
22705;SDS011;11520;51.198;4.468;2023-07-20T14:11:25;2.60;;;1.70;;
22705;SDS011;11520;51.198;4.468;2023-07-20T14:13:51;2.35;;;1.38;;
22705;SDS011;11520;51.198;4.468;2023-07-20T14:16:20;1.20;;;1.10;;
22705;SDS011;11520;51.198;4.468;2023-07-20T14:18:48;3.10;;;1.33;;
22705;SDS011;11520;51.198;4.468;2023-07-20T14:21:14;4.38;;;1.95;;
22705;SDS011;11520;51.198;4.468;2023-07-20T14:23:41;4.70;;;1.67;;
22705;SDS011;11520;51.198;4.468;2023-07-20T14:26:08;1.75;;;1.63;;
22705;SDS011;11520;51.198;4.468;2023-07-20T14:28:34;2.60;;;2.33;;
22705;SDS011;11520;51.198;4.468;2023-07-20T14:31:00;2.08;;;1.67;;
22705;SDS011;11520;51.198;4.468;2023-07-20T14:33:25;1.77;;;1.67;;
22705;SDS011;11520;51.198;4.468;2023-07-20T14:35:51;3.35;;;2.08;;
22705;SDS011;11520;51.198;4.468;2023-07-20T14:38:17;1.55;;;1.45;;
22705;SDS011;11520;51.198;4.468;2023-07-20T14:40:43;3.05;;;1.40;;
22705;SDS011;11520;51.198;4.468;2023-07-20T14:43:09;3.88;;;1.95;;
22705;SDS011;11520;51.198;4.468;2023-07-20T14:45:35;3.38;;;1.85;;
22705;SDS011;11520;51.198;4.468;2023-07-20T14:48:03;2.60;;;1.45;;
22705;SDS011;11520;51.198;4.468;2023-07-20T14:50:29;3.22;;;1.60;;
22705;SDS011;11520;51.198;4.468;2023-07-20T14:52:54;2.40;;;1.40;;
22705;SDS011;11520;51.198;4.468;2023-07-20T14:55:20;5.43;;;2.65;;
22705;SDS011;11520;51.198;4.468;2023-07-20T14:57:50;2.17;;;1.60;;
22705;SDS011;11520;51.198;4.468;2023-07-20T15:00:16;3.38;;;1.65;;
22705;SDS011;11520;51.198;4.468;2023-07-20T15:02:43;2.40;;;1.70;;